createdAt,value
2018-09-29T00:01:44.610Z,3.00
2018-09-29T00:04:12.965Z,2.40
2018-09-29T00:06:41.391Z,3.50
2018-09-29T00:09:11.204Z,2.63
2018-09-29T00:11:39.673Z,2.73
2018-09-29T00:14:09.445Z,2.87
2018-09-29T00:16:37.838Z,2.93
2018-09-29T00:19:06.190Z,3.00
2018-09-29T08:51:16.810Z,1.10
2018-09-29T08:53:45.324Z,1.15
2018-09-29T08:56:13.649Z,1.07
2018-09-29T08:58:42.000Z,1.87
2018-09-29T09:01:10.367Z,1.17
2018-09-29T09:03:38.754Z,2.17
2018-09-29T09:06:07.346Z,1.40
2018-09-29T09:08:35.667Z,1.17
2018-09-29T09:11:05.317Z,1.67
2018-09-29T09:13:34.322Z,1.47
2018-09-29T09:16:02.678Z,1.22
2018-09-29T09:18:31.426Z,1.90
2018-09-29T09:20:59.865Z,1.50
2018-09-29T09:23:28.365Z,1.25
2018-09-29T09:25:56.649Z,0.88
2018-09-29T09:28:25.026Z,1.52
2018-09-29T09:30:53.823Z,1.02
2018-09-29T09:33:22.189Z,1.32
2018-09-29T09:35:50.560Z,1.00
2018-09-29T09:38:18.954Z,1.15
2018-09-29T09:40:47.304Z,1.10
2018-09-29T09:43:15.664Z,1.00
2018-09-29T09:45:44.000Z,1.10
2018-09-29T09:48:12.386Z,0.88
2018-09-29T09:50:40.691Z,1.55
2018-09-29T09:53:09.094Z,1.25
2018-09-29T09:55:37.414Z,1.45
2018-09-29T09:58:05.819Z,1.55
2018-09-29T10:00:39.397Z,1.17
2018-09-29T10:03:12.970Z,1.42
2018-09-29T10:05:41.581Z,1.15
2018-09-29T10:08:09.953Z,1.00
2018-09-29T10:10:38.327Z,1.10
2018-09-29T10:13:06.726Z,0.90
2018-09-29T10:15:35.097Z,1.42
2018-09-29T10:18:03.665Z,1.30
2018-09-29T10:20:32.061Z,1.45
2018-09-29T10:23:00.477Z,1.40
2018-09-29T10:25:28.831Z,1.98
2018-09-29T10:27:57.186Z,1.32
2018-09-29T10:30:25.542Z,2.10
2018-09-29T10:32:53.949Z,1.65
2018-09-29T10:35:22.445Z,1.47
2018-09-29T10:37:50.967Z,1.47
2018-09-29T10:40:19.256Z,2.30
2018-09-29T10:42:47.993Z,0.90
2018-09-29T10:45:16.298Z,1.30
2018-09-29T10:47:44.694Z,1.98
2018-09-29T10:50:13.071Z,2.80
2018-09-29T10:52:41.861Z,1.55
2018-09-29T15:54:22.422Z,1.47
2018-09-29T15:56:50.715Z,1.32
2018-09-29T15:59:19.023Z,1.00
2018-09-29T16:01:47.364Z,1.50
2018-09-29T16:04:15.758Z,1.30
2018-09-29T16:06:44.101Z,3.20
2018-09-29T16:09:12.536Z,1.47
2018-09-29T16:11:41.162Z,9.58
2018-09-29T16:14:09.543Z,2.22
2018-09-29T16:16:37.931Z,1.30
2018-09-29T16:19:06.496Z,1.70
2018-09-29T16:21:34.851Z,2.60
2018-09-29T16:24:03.170Z,1.57
2018-09-29T16:26:31.540Z,2.75
2018-09-29T16:28:59.893Z,1.70
2018-09-29T16:31:28.227Z,1.30
2018-09-29T16:33:56.537Z,1.62
2018-09-29T16:36:25.152Z,2.37
2018-09-29T16:38:53.590Z,1.75
2018-09-29T16:41:21.976Z,3.87
2018-09-29T16:43:50.901Z,1.92
2018-09-29T16:46:19.293Z,1.32
2018-09-29T16:48:47.665Z,1.80
2018-09-29T16:51:16.030Z,1.30
2018-09-29T16:53:44.514Z,1.70
2018-09-29T16:56:13.818Z,1.30
2018-09-29T16:58:42.180Z,1.57
2018-09-29T17:01:12.030Z,1.60
2018-09-29T17:03:40.362Z,1.57
2018-09-29T17:06:12.908Z,1.80
2018-09-29T17:08:41.893Z,1.80
2018-09-29T17:11:10.283Z,1.70
2018-09-29T17:13:38.868Z,2.08
2018-09-29T17:16:07.882Z,1.80
2018-09-29T17:18:36.305Z,2.33
2018-09-29T17:21:04.662Z,2.65
2018-09-29T17:23:33.233Z,2.75
2018-09-29T17:26:01.845Z,1.85
2018-09-29T17:28:31.805Z,2.52
2018-09-29T17:31:00.682Z,2.58
2018-09-29T17:33:29.390Z,1.92
2018-09-29T17:35:57.755Z,2.55
2018-09-29T17:38:26.145Z,2.20
2018-09-29T17:40:54.507Z,2.40
2018-09-29T17:43:22.851Z,3.37
2018-09-29T17:45:51.197Z,3.05
2018-09-29T17:48:19.582Z,3.35
2018-09-29T17:50:47.971Z,5.95
2018-09-29T17:53:16.298Z,3.33
2018-09-29T17:55:44.638Z,4.00
2018-09-29T17:58:12.983Z,4.10
2018-09-29T18:00:41.334Z,4.58
2018-09-29T18:03:09.814Z,4.17
2018-09-29T18:05:38.042Z,4.12
2018-09-29T18:08:06.646Z,3.80
2018-09-29T18:10:35.025Z,3.12
2018-09-29T18:13:03.392Z,2.95
2018-09-29T18:15:31.721Z,3.55
2018-09-29T18:18:00.105Z,3.05
2018-09-29T18:20:28.531Z,3.10
2018-09-29T18:22:56.878Z,3.33
2018-09-29T18:25:25.285Z,3.00
2018-09-29T18:27:53.629Z,4.67
2018-09-29T18:30:22.014Z,5.05
2018-09-29T18:32:50.433Z,11.25
2018-09-29T18:35:19.058Z,4.50
2018-09-29T18:37:47.442Z,3.20
2018-09-29T18:40:15.812Z,4.97
2018-09-29T18:42:44.305Z,3.00
2018-09-29T18:45:12.671Z,2.63
2018-09-29T18:47:41.075Z,3.53
2018-09-29T18:50:10.265Z,3.27
2018-09-29T18:52:38.635Z,3.00
2018-09-29T18:55:06.983Z,3.73
2018-09-29T18:57:35.574Z,3.13
2018-09-29T19:00:03.917Z,3.45
2018-09-29T19:02:32.297Z,4.60
2018-09-29T19:05:00.617Z,3.65
2018-09-29T19:07:28.969Z,4.40
2018-09-29T19:09:57.328Z,4.70
2018-09-29T19:12:25.656Z,4.58
2018-09-29T19:14:54.018Z,3.83
2018-09-29T19:17:22.371Z,8.00
2018-09-29T19:19:50.819Z,3.90
2018-09-29T19:22:19.185Z,5.47
2018-09-29T19:24:47.538Z,4.13
2018-09-29T19:27:15.898Z,5.62
2018-09-29T19:29:44.244Z,6.77
2018-09-29T19:32:12.590Z,10.03
2018-09-29T19:34:40.925Z,5.73
2018-09-29T19:37:09.276Z,8.08
2018-09-29T19:39:37.592Z,5.10
2018-09-29T19:42:05.946Z,4.07
2018-09-29T19:44:34.258Z,5.03
2018-09-29T19:47:02.598Z,26.90
2018-09-29T19:49:31.043Z,28.70
2018-09-29T19:51:59.374Z,24.67
2018-09-29T19:54:27.723Z,6.27
2018-09-29T19:56:56.075Z,5.40
2018-09-29T19:59:24.442Z,10.90
2018-09-29T20:01:52.798Z,11.10
2018-09-29T20:04:21.132Z,7.43
2018-09-29T20:06:49.486Z,9.27
2018-09-29T20:09:17.862Z,14.30
2018-09-29T20:11:46.214Z,9.57
2018-09-29T20:14:14.574Z,8.97
2018-09-29T20:16:42.974Z,4.63
2018-09-29T20:19:11.282Z,7.37
2018-09-29T20:21:39.618Z,5.50
2018-09-29T20:24:08.005Z,10.27
2018-09-29T20:26:36.356Z,7.73
2018-09-29T20:29:04.664Z,10.73
2018-09-29T20:31:33.036Z,6.47
2018-09-29T20:34:01.371Z,12.23
2018-09-29T20:36:29.737Z,7.63
2018-09-29T20:38:58.046Z,6.43
2018-09-29T20:41:26.370Z,10.97
2018-09-29T20:43:54.751Z,24.63
2018-09-29T20:46:23.078Z,15.93
2018-09-29T20:48:51.533Z,10.07
2018-09-29T20:51:19.911Z,7.47
2018-09-29T20:53:48.238Z,15.60
2018-09-29T20:56:16.662Z,10.23
2018-09-29T20:58:45.018Z,10.67
2018-09-29T21:01:13.398Z,5.13
2018-09-29T21:03:41.736Z,4.43
2018-09-29T21:06:10.048Z,4.20
2018-09-29T21:08:38.413Z,4.07
2018-09-29T21:11:06.743Z,4.97
2018-09-29T21:13:35.177Z,5.93
2018-09-29T21:16:03.534Z,4.10
2018-09-29T21:18:32.230Z,4.50
2018-09-29T21:21:01.136Z,4.10
2018-09-29T21:23:29.466Z,4.40
2018-09-29T21:25:57.856Z,3.93
2018-09-29T21:28:26.222Z,4.10
2018-09-29T21:30:54.560Z,4.03
2018-09-29T21:33:22.875Z,3.80
2018-09-29T21:35:51.217Z,4.47
2018-09-29T21:38:19.698Z,4.23
2018-09-29T21:40:48.061Z,5.00
2018-09-29T21:43:16.404Z,4.47
2018-09-29T21:45:44.755Z,3.97
2018-09-29T21:48:13.106Z,7.17
2018-09-29T21:50:41.463Z,5.93
2018-09-29T21:53:09.799Z,4.67
2018-09-29T21:55:38.091Z,4.43
2018-09-29T21:58:06.438Z,4.47
2018-09-29T22:00:40.176Z,4.20
2018-09-29T22:03:09.617Z,3.80
2018-09-29T22:05:38.001Z,3.93
2018-09-29T22:08:06.502Z,4.20
2018-09-29T22:10:35.042Z,4.53
2018-09-29T22:13:03.730Z,4.40
2018-09-29T22:15:32.107Z,3.67
2018-09-29T22:18:00.436Z,3.80
2018-09-29T22:20:28.782Z,4.43
2018-09-29T22:22:57.130Z,8.90
2018-09-29T22:25:25.458Z,9.30
2018-09-29T22:27:54.293Z,8.73
2018-09-29T22:30:22.645Z,9.10
2018-09-29T22:32:51.256Z,10.87
2018-09-29T22:35:19.598Z,4.63
2018-09-29T22:37:47.962Z,6.07
2018-09-29T22:40:16.934Z,5.80
2018-09-29T22:42:45.302Z,4.27
2018-09-29T22:45:13.656Z,5.47
2018-09-29T22:47:41.999Z,4.17
2018-09-29T22:50:10.382Z,4.23
2018-09-29T22:52:38.691Z,4.93
2018-09-29T22:55:08.111Z,3.90
2018-09-29T22:57:36.763Z,5.77
2018-09-29T23:00:05.095Z,7.77
2018-09-29T23:02:33.422Z,4.97
2018-09-29T23:05:01.728Z,5.53
2018-09-29T23:07:30.042Z,4.13
2018-09-29T23:09:58.349Z,3.60
2018-09-29T23:12:26.655Z,5.00
2018-09-29T23:14:54.951Z,3.43
2018-09-29T23:17:23.356Z,3.70
2018-09-29T23:19:51.803Z,3.77
2018-09-29T23:22:20.393Z,3.47
2018-09-29T23:24:48.685Z,3.57
2018-09-29T23:27:16.993Z,3.30
2018-09-29T23:29:45.293Z,3.27
2018-09-29T23:32:13.578Z,3.80
2018-09-29T23:34:41.923Z,3.60
2018-09-29T23:37:10.305Z,3.60
2018-09-29T23:39:38.637Z,3.50
2018-09-29T23:42:06.977Z,3.17
2018-09-29T23:44:35.281Z,3.03
2018-09-29T23:47:03.595Z,4.30
2018-09-29T23:49:32.086Z,3.93
2018-09-29T23:52:00.421Z,3.13
2018-09-29T23:54:28.803Z,3.17
2018-09-29T23:56:57.151Z,3.77
2018-09-29T23:59:25.710Z,4.03
